createdAt,value
2022-08-16T00:00:38.374Z,9.25
2022-08-16T00:05:48.591Z,9.07
2022-08-16T00:10:53.412Z,9.70
2022-08-16T00:15:57.869Z,9.73
2022-08-16T00:21:01.081Z,10.77
2022-08-16T00:26:35.345Z,10.88
2022-08-16T00:31:59.352Z,11.43
2022-08-16T00:36:56.278Z,10.05
2022-08-16T00:42:01.661Z,9.90
2022-08-16T00:47:11.113Z,10.73
2022-08-16T00:52:29.777Z,10.20
2022-08-16T00:57:58.302Z,10.70
2022-08-16T01:03:00.915Z,11.80
2022-08-16T01:08:35.026Z,11.07
2022-08-16T01:13:33.954Z,11.27
2022-08-16T01:18:45.273Z,12.10
2022-08-16T01:23:58.214Z,11.52
2022-08-16T01:29:09.911Z,10.75
2022-08-16T01:34:25.333Z,10.70
2022-08-16T01:39:35.458Z,10.27
2022-08-16T01:44:42.402Z,11.02
2022-08-16T01:50:42.483Z,11.50
2022-08-16T01:55:12.177Z,12.38
2022-08-16T02:00:19.949Z,12.20
2022-08-16T02:05:23.817Z,12.55
2022-08-16T02:10:28.850Z,11.85
2022-08-16T02:15:38.738Z,12.55
2022-08-16T02:20:53.514Z,12.93
2022-08-16T02:25:59.551Z,13.43
2022-08-16T02:31:07.547Z,12.45
2022-08-16T02:36:48.181Z,13.02
2022-08-16T02:41:43.026Z,13.32
2022-08-16T02:46:49.945Z,13.90
2022-08-16T02:51:54.711Z,14.50
2022-08-16T02:56:59.440Z,14.20
2022-08-16T03:02:08.837Z,15.35
2022-08-16T03:07:14.521Z,13.75
2022-08-16T03:12:30.152Z,13.98
2022-08-16T03:17:35.248Z,14.40
2022-08-16T03:22:39.324Z,15.82
2022-08-16T03:27:52.802Z,15.75
2022-08-16T03:32:57.540Z,16.08
2022-08-16T03:38:32.821Z,16.08
2022-08-16T03:43:51.085Z,17.38
2022-08-16T03:48:57.593Z,15.88
2022-08-16T03:54:01.705Z,16.40
2022-08-16T03:59:09.009Z,15.35
2022-08-16T04:04:25.156Z,18.00
2022-08-16T04:09:38.239Z,14.77
2022-08-16T04:14:46.863Z,13.13
2022-08-16T04:19:54.891Z,15.05
2022-08-16T04:25:02.262Z,15.15
2022-08-16T04:30:32.469Z,14.32
2022-08-16T04:35:39.546Z,15.05
2022-08-16T04:40:44.770Z,15.85
2022-08-16T04:46:00.190Z,15.15
2022-08-16T04:51:07.972Z,14.75
2022-08-16T04:56:22.092Z,15.13
2022-08-16T05:01:56.093Z,15.38
2022-08-16T05:06:53.317Z,16.27
2022-08-16T05:12:04.532Z,15.45
2022-08-16T05:17:10.371Z,14.93
2022-08-16T05:22:18.316Z,17.58
2022-08-16T05:27:27.788Z,18.58
2022-08-16T05:32:36.607Z,19.90
2022-08-16T05:37:50.636Z,18.65
2022-08-16T05:42:55.643Z,18.58
2022-08-16T05:48:02.596Z,18.67
2022-08-16T05:53:17.443Z,18.60
2022-08-16T05:58:38.354Z,19.70
2022-08-16T06:03:44.416Z,18.48
2022-08-16T06:08:54.677Z,21.15
2022-08-16T06:13:58.569Z,20.70
2022-08-16T06:19:13.250Z,22.45
2022-08-16T06:24:53.621Z,22.70
2022-08-16T06:29:49.981Z,25.98
2022-08-16T06:35:02.270Z,22.98
2022-08-16T06:40:12.924Z,24.10
2022-08-16T06:45:24.250Z,27.88
2022-08-16T06:50:50.280Z,26.63
2022-08-16T06:55:57.238Z,24.75
2022-08-16T07:01:01.277Z,27.33
2022-08-16T07:06:08.778Z,26.17
2022-08-16T07:11:20.791Z,26.63
2022-08-16T07:16:45.209Z,26.60
2022-08-16T07:21:59.104Z,25.73
2022-08-16T07:27:08.517Z,26.35
2022-08-16T07:32:13.347Z,25.25
2022-08-16T07:37:18.549Z,24.40
2022-08-16T07:42:49.265Z,25.20
2022-08-16T07:47:53.516Z,25.85
2022-08-16T07:53:02.004Z,24.67
2022-08-16T07:58:06.916Z,25.17
2022-08-16T08:03:22.460Z,24.60
2022-08-16T08:08:51.701Z,23.65
2022-08-16T08:14:03.091Z,25.45
2022-08-16T08:19:12.363Z,23.67
2022-08-16T08:24:19.753Z,21.67
2022-08-16T08:29:24.774Z,22.30
2022-08-16T08:34:42.070Z,24.70
2022-08-16T08:39:54.655Z,25.75
2022-08-16T08:44:59.599Z,22.30
2022-08-16T08:50:05.186Z,22.10
2022-08-16T08:55:14.729Z,23.08
2022-08-16T09:00:26.845Z,21.52
2022-08-16T09:05:35.922Z,19.85
2022-08-16T09:10:44.639Z,19.42
2022-08-16T09:15:49.235Z,18.23
2022-08-16T09:20:59.550Z,18.13
2022-08-16T09:26:46.035Z,18.33
2022-08-16T09:31:30.738Z,17.98
2022-08-16T09:36:34.401Z,19.08
2022-08-16T09:41:38.923Z,16.80
2022-08-16T09:46:48.065Z,17.75
2022-08-16T09:51:55.612Z,17.50
2022-08-16T09:57:02.967Z,16.40
2022-08-16T10:02:25.965Z,16.50
2022-08-16T10:07:43.970Z,15.68
2022-08-16T10:13:07.970Z,16.13
2022-08-16T10:19:00.390Z,13.55
2022-08-16T10:23:36.736Z,14.93
2022-08-16T10:28:43.405Z,14.27
2022-08-16T10:33:47.152Z,14.70
2022-08-16T10:38:52.064Z,14.27
2022-08-16T10:43:56.741Z,14.13
2022-08-16T10:49:01.038Z,13.75
2022-08-16T10:54:28.807Z,14.68
2022-08-16T10:59:45.932Z,15.10
2022-08-16T11:05:06.246Z,11.05
2022-08-16T11:15:37.047Z,11.70
2022-08-16T11:20:48.599Z,12.25
2022-08-16T11:26:16.658Z,13.10
2022-08-16T11:31:16.946Z,9.52
2022-08-16T11:36:27.430Z,11.60
2022-08-16T11:41:33.451Z,11.93
2022-08-16T11:46:44.392Z,10.52
2022-08-16T11:51:50.111Z,11.48
2022-08-16T11:56:57.046Z,12.50
2022-08-16T12:02:11.570Z,9.95
2022-08-16T12:07:25.734Z,8.23
2022-08-16T12:12:28.879Z,8.82
2022-08-16T12:17:33.831Z,8.95
2022-08-16T12:22:37.392Z,9.50
2022-08-16T12:27:40.890Z,11.40
2022-08-16T12:32:46.118Z,12.88
2022-08-16T12:37:58.705Z,10.90
2022-08-16T12:43:05.334Z,10.88
2022-08-16T12:48:35.522Z,12.15
2022-08-16T12:53:40.160Z,10.23
2022-08-16T12:58:48.637Z,11.30
2022-08-16T13:04:11.365Z,9.40
2022-08-16T13:09:26.330Z,9.55
2022-08-16T13:14:35.277Z,7.63
2022-08-16T13:20:07.097Z,5.93
2022-08-16T13:25:06.306Z,4.68
2022-08-16T13:30:21.839Z,4.55
2022-08-16T13:35:35.422Z,5.53
2022-08-16T13:40:46.000Z,4.63
2022-08-16T13:45:50.458Z,4.22
2022-08-16T13:50:58.709Z,3.75
2022-08-16T13:56:06.977Z,3.80
2022-08-16T14:01:13.878Z,3.10
2022-08-16T14:06:18.821Z,3.63
2022-08-16T14:11:22.122Z,2.88
2022-08-16T14:16:33.540Z,2.80
2022-08-16T14:21:40.946Z,3.35
2022-08-16T14:26:46.492Z,2.80
2022-08-16T14:31:53.717Z,2.83
2022-08-16T14:37:00.717Z,3.30
2022-08-16T14:42:09.103Z,2.90
2022-08-16T14:47:15.128Z,3.00
2022-08-16T14:52:52.051Z,2.50
2022-08-16T14:57:46.436Z,2.17
2022-08-16T15:02:54.149Z,2.58
2022-08-16T15:08:01.058Z,2.50
2022-08-16T15:13:06.502Z,2.13
2022-08-16T15:18:14.609Z,2.72
2022-08-16T15:23:28.758Z,2.72
2022-08-16T15:28:33.712Z,3.08
2022-08-16T15:33:50.755Z,2.83
2022-08-16T15:39:06.774Z,2.95
2022-08-16T15:44:25.624Z,3.30
2022-08-16T15:49:37.195Z,3.08
2022-08-16T15:54:52.552Z,3.78
2022-08-16T16:00:04.918Z,4.57
2022-08-16T16:05:19.655Z,4.22
2022-08-16T16:10:29.927Z,3.67
2022-08-16T16:15:35.950Z,3.13
2022-08-16T16:20:43.667Z,3.03
2022-08-16T16:25:48.681Z,3.20
2022-08-16T16:30:56.931Z,3.00
2022-08-16T16:36:03.917Z,2.70
2022-08-16T16:41:11.496Z,3.10
2022-08-16T16:46:42.074Z,3.28
2022-08-16T16:51:44.753Z,2.63
2022-08-16T16:56:54.315Z,3.03
2022-08-16T17:02:01.436Z,2.90
2022-08-16T17:07:24.347Z,2.63
2022-08-16T17:12:47.231Z,3.75
2022-08-16T17:23:16.261Z,3.10
2022-08-16T17:28:58.482Z,3.28
2022-08-16T17:33:54.748Z,7.60
2022-08-16T17:39:00.093Z,11.63
2022-08-16T17:39:28.150Z,3.30
2022-08-16T17:44:05.746Z,16.15
2022-08-16T17:49:08.852Z,16.75
2022-08-16T17:54:20.285Z,17.02
2022-08-16T17:59:36.960Z,17.95
2022-08-16T18:04:49.318Z,19.58
2022-08-16T18:09:53.096Z,18.55
2022-08-16T18:15:00.170Z,19.00
2022-08-16T18:20:04.346Z,20.40
2022-08-16T18:25:07.991Z,20.38
2022-08-16T18:30:17.658Z,19.40
2022-08-16T18:35:21.751Z,19.05
2022-08-16T18:40:25.035Z,20.30
2022-08-16T18:45:35.614Z,20.23
2022-08-16T18:50:59.681Z,21.23
2022-08-16T18:56:05.159Z,22.83
2022-08-16T19:01:09.729Z,24.45
2022-08-16T19:06:15.215Z,22.77
2022-08-16T19:11:23.356Z,25.55
2022-08-16T19:16:27.741Z,24.02
2022-08-16T19:21:30.820Z,26.90
2022-08-16T19:26:33.953Z,26.60
2022-08-16T19:31:38.410Z,26.48
2022-08-16T19:36:41.428Z,26.67
2022-08-16T19:41:53.027Z,27.98
2022-08-16T19:47:00.755Z,26.15
2022-08-16T19:52:15.033Z,25.77
2022-08-16T19:57:18.425Z,24.48
2022-08-16T20:02:35.633Z,26.05
2022-08-16T20:07:39.563Z,23.88
2022-08-16T20:12:44.126Z,24.65
2022-08-16T20:18:21.266Z,24.90
2022-08-16T20:23:28.358Z,25.67
2022-08-16T20:28:52.086Z,26.10
2022-08-16T20:34:05.958Z,27.27
2022-08-16T20:39:15.257Z,27.02
2022-08-16T20:44:23.022Z,28.95
2022-08-16T20:49:35.574Z,28.73
2022-08-16T20:54:39.203Z,27.15
2022-08-16T20:59:45.605Z,25.00
2022-08-16T21:05:02.089Z,24.77
2022-08-16T21:10:14.624Z,24.35
2022-08-16T21:15:18.172Z,26.40
2022-08-16T21:20:25.405Z,27.10
2022-08-16T21:25:32.222Z,23.13
2022-08-16T21:30:35.829Z,22.85
2022-08-16T21:35:41.274Z,22.35
2022-08-16T21:40:44.556Z,22.23
2022-08-16T21:45:48.788Z,24.17
2022-08-16T21:51:02.446Z,21.75
2022-08-16T21:56:06.774Z,22.10
2022-08-16T22:01:13.638Z,22.73
2022-08-16T22:06:18.183Z,20.48
2022-08-16T22:11:23.224Z,23.92
2022-08-16T22:16:27.284Z,26.70
2022-08-16T22:21:32.869Z,26.38
2022-08-16T22:26:42.827Z,26.27
2022-08-16T22:31:45.942Z,28.65
2022-08-16T22:36:51.096Z,30.50
2022-08-16T22:41:54.590Z,28.08
2022-08-16T22:46:57.775Z,24.60
2022-08-16T22:52:07.281Z,29.13
2022-08-16T22:57:10.826Z,27.05
2022-08-16T23:02:14.942Z,28.77
2022-08-16T23:07:19.608Z,25.88
2022-08-16T23:12:29.195Z,29.77
2022-08-16T23:17:33.757Z,32.30
2022-08-16T23:23:20.983Z,31.45
2022-08-16T23:28:08.112Z,34.22
2022-08-16T23:33:13.494Z,29.02
2022-08-16T23:38:37.665Z,34.00
2022-08-16T23:43:43.553Z,32.63
2022-08-16T23:50:01.304Z,34.55
2022-08-16T23:54:11.844Z,34.30
2022-08-16T23:59:14.843Z,31.83
